createdAt,value
2022-09-16T00:01:29.940Z,7.43
2022-09-16T00:03:59.748Z,7.35
2022-09-16T00:06:28.746Z,6.40
2022-09-16T00:08:59.251Z,10.50
2022-09-16T00:11:25.868Z,9.07
2022-09-16T00:13:52.428Z,8.80
2022-09-16T00:16:25.020Z,9.27
2022-09-16T00:18:59.976Z,13.18
2022-09-16T00:21:27.989Z,5.88
2022-09-16T00:23:56.615Z,8.87
2022-09-16T00:26:23.784Z,8.82
2022-09-16T00:28:51.156Z,8.43
2022-09-16T00:31:18.483Z,8.30
2022-09-16T00:33:45.278Z,8.50
2022-09-16T00:36:17.610Z,8.23
2022-09-16T00:38:44.947Z,10.25
2022-09-16T00:41:20.448Z,5.75
2022-09-16T00:44:02.881Z,6.53
2022-09-16T00:46:43.531Z,5.57
2022-09-16T00:49:16.969Z,6.80
2022-09-16T00:51:47.896Z,8.13
2022-09-16T00:54:17.393Z,5.85
2022-09-16T00:56:46.950Z,8.80
2022-09-16T00:59:45.981Z,4.40
2022-09-16T01:02:17.204Z,7.40
2022-09-16T01:04:54.289Z,9.00
2022-09-16T01:07:32.765Z,5.53
2022-09-16T01:09:59.418Z,6.55
2022-09-16T01:12:29.796Z,7.15
2022-09-16T01:14:57.512Z,6.80
2022-09-16T01:17:50.811Z,7.28
2022-09-16T01:20:52.464Z,13.57
2022-09-16T01:23:56.850Z,10.57
2022-09-16T01:26:53.303Z,6.47
2022-09-16T01:29:30.853Z,6.80
2022-09-16T01:32:13.975Z,5.53
2022-09-16T01:35:04.960Z,7.22
2022-09-16T01:37:51.333Z,11.45
2022-09-16T01:40:25.669Z,8.82
2022-09-16T01:43:06.051Z,5.40
2022-09-16T01:45:55.491Z,9.20
2022-09-16T01:48:50.491Z,8.05
2022-09-16T01:51:31.316Z,6.43
2022-09-16T01:54:05.015Z,5.22
2022-09-16T01:57:29.821Z,10.30
2022-09-16T02:00:00.712Z,8.52
2022-09-16T02:02:33.857Z,6.40
2022-09-16T02:05:05.724Z,5.95
2022-09-16T02:07:37.474Z,11.80
2022-09-16T02:10:27.555Z,11.83
2022-09-16T02:13:00.928Z,7.43
2022-09-16T02:15:29.167Z,10.75
2022-09-16T02:18:04.276Z,6.20
2022-09-16T02:20:32.418Z,10.05
2022-09-16T02:23:06.742Z,8.43
2022-09-16T02:25:38.435Z,8.00
2022-09-16T02:28:10.253Z,12.02
2022-09-16T02:30:37.058Z,11.07
2022-09-16T02:33:09.083Z,13.10
2022-09-16T02:35:38.328Z,7.57
2022-09-16T02:38:14.294Z,4.82
2022-09-16T02:40:54.391Z,8.25
2022-09-16T02:43:21.578Z,5.57
2022-09-16T02:46:09.865Z,5.75
2022-09-16T02:48:42.305Z,7.67
2022-09-16T02:51:11.663Z,7.57
2022-09-16T02:53:52.066Z,6.78
2022-09-16T02:56:27.268Z,4.97
2022-09-16T02:58:54.038Z,4.13
2022-09-16T03:01:22.940Z,5.93
2022-09-16T03:03:50.693Z,9.15
2022-09-16T03:17:20.659Z,4.50
2022-09-16T03:20:05.572Z,4.50
2022-09-16T03:22:34.971Z,8.50
2022-09-16T03:25:40.016Z,2.35
2022-09-16T03:41:37.103Z,9.27
2022-09-16T03:44:04.535Z,12.73
2022-09-16T03:46:32.429Z,7.18
2022-09-16T03:48:59.943Z,6.85
2022-09-16T03:51:27.015Z,6.82
2022-09-16T03:53:54.627Z,4.07
2022-09-16T03:56:30.170Z,7.53
2022-09-16T03:58:56.724Z,3.28
2022-09-16T04:01:23.824Z,7.05
2022-09-16T04:03:51.786Z,7.65
2022-09-16T04:06:18.781Z,5.77
2022-09-16T04:19:27.124Z,7.70
2022-09-16T04:21:53.735Z,6.22
2022-09-16T04:24:20.376Z,2.05
2022-09-16T04:26:46.977Z,6.13
2022-09-16T04:29:13.712Z,6.53
2022-09-16T04:31:40.380Z,6.07
2022-09-16T04:34:07.073Z,8.05
2022-09-16T04:36:34.394Z,6.00
2022-09-16T04:39:01.315Z,6.88
2022-09-16T04:41:28.036Z,7.63
2022-09-16T04:43:59.606Z,4.43
2022-09-16T04:46:32.880Z,6.57
2022-09-16T04:49:00.746Z,6.72
2022-09-16T04:51:31.495Z,3.15
2022-09-16T04:54:01.194Z,8.07
2022-09-16T04:56:31.105Z,5.83
2022-09-16T04:59:13.897Z,6.53
2022-09-16T05:01:41.643Z,6.25
2022-09-16T05:06:55.511Z,6.43
2022-09-16T05:09:22.532Z,10.20
2022-09-16T05:14:42.791Z,5.78
2022-09-16T05:23:21.083Z,8.27
2022-09-16T05:25:47.720Z,4.10
2022-09-16T05:28:14.544Z,5.60
2022-09-16T05:30:48.192Z,6.43
2022-09-16T05:40:23.329Z,6.05
2022-09-16T05:42:53.877Z,8.07
2022-09-16T05:45:25.744Z,6.40
2022-09-16T05:47:54.354Z,8.82
2022-09-16T05:50:21.086Z,11.17
2022-09-16T05:52:47.804Z,10.05
2022-09-16T06:06:48.651Z,9.63
2022-09-16T06:09:19.399Z,9.52
2022-09-16T06:11:48.582Z,11.65
2022-09-16T06:14:16.215Z,9.05
2022-09-16T06:16:43.538Z,8.30
2022-09-16T06:19:16.174Z,10.32
2022-09-16T06:21:43.924Z,8.43
2022-09-16T06:24:11.509Z,6.97
2022-09-16T06:30:21.076Z,9.30
2022-09-16T06:38:47.620Z,14.05
2022-09-16T06:41:16.089Z,10.23
2022-09-16T06:43:43.569Z,7.57
2022-09-16T06:46:13.462Z,12.75
2022-09-16T06:48:41.451Z,9.40
2022-09-16T06:51:11.715Z,6.97
2022-09-16T07:22:15.735Z,6.53
2022-09-16T07:24:47.570Z,5.73
2022-09-16T07:40:12.402Z,8.87
2022-09-16T15:20:50.142Z,9.52
2022-09-16T15:23:50.322Z,6.95
2022-09-16T15:30:06.133Z,9.43
2022-09-16T15:33:01.892Z,8.52
2022-09-16T16:01:41.912Z,6.82
2022-09-16T16:17:13.669Z,11.18
2022-09-16T16:19:45.527Z,8.60
2022-09-16T16:22:30.389Z,14.20
2022-09-16T16:25:08.931Z,11.30
2022-09-16T16:27:54.109Z,11.73
2022-09-16T16:30:32.771Z,15.75
2022-09-16T16:33:11.183Z,14.57
2022-09-16T16:39:04.609Z,15.07
2022-09-16T16:41:34.224Z,16.37
2022-09-16T16:44:40.455Z,18.67
2022-09-16T16:47:10.090Z,11.95
2022-09-16T16:49:46.219Z,13.77
2022-09-16T16:52:16.232Z,14.25
2022-09-16T16:54:42.852Z,13.97
2022-09-16T16:57:15.503Z,17.67
2022-09-16T16:59:53.728Z,14.65
2022-09-16T17:02:38.538Z,10.32
2022-09-16T17:06:02.577Z,12.07
2022-09-16T17:08:45.187Z,15.27
2022-09-16T17:19:21.526Z,16.55
2022-09-16T17:21:54.254Z,10.00
2022-09-16T17:24:29.840Z,10.10
2022-09-16T17:26:57.846Z,9.98
2022-09-16T17:29:31.505Z,15.02
2022-09-16T17:31:59.225Z,12.98
2022-09-16T17:34:25.887Z,14.53
2022-09-16T17:36:52.534Z,14.10
2022-09-16T17:39:21.489Z,17.73
2022-09-16T17:41:49.431Z,13.43
2022-09-16T17:44:17.460Z,10.50
2022-09-16T17:49:46.529Z,10.23
2022-09-16T17:52:13.225Z,16.73
2022-09-16T17:58:09.463Z,18.25
2022-09-16T18:00:39.448Z,13.13
2022-09-16T18:03:16.366Z,16.13
2022-09-16T18:06:24.949Z,15.35
2022-09-16T18:08:51.977Z,10.35
2022-09-16T18:14:12.766Z,7.20
2022-09-16T18:16:40.177Z,8.32
2022-09-16T18:19:16.105Z,6.82
2022-09-16T18:21:45.753Z,4.82
2022-09-16T18:24:12.836Z,7.18
2022-09-16T18:26:40.279Z,8.60
2022-09-16T18:29:19.785Z,8.52
2022-09-16T18:31:48.653Z,10.38
2022-09-16T18:34:16.916Z,9.95
2022-09-16T18:36:46.448Z,9.93
2022-09-16T18:39:16.067Z,6.27
2022-09-16T18:41:46.031Z,13.20
2022-09-16T18:44:16.482Z,5.55
2022-09-16T18:46:43.663Z,9.85
2022-09-16T18:49:12.653Z,10.80
2022-09-16T18:51:51.289Z,10.10
2022-09-16T18:54:21.354Z,7.38
2022-09-16T18:56:51.352Z,14.55
2022-09-16T18:59:23.684Z,13.32
2022-09-16T19:01:53.175Z,7.90
2022-09-16T19:04:22.402Z,13.57
2022-09-16T19:07:01.578Z,9.70
2022-09-16T19:09:28.226Z,7.55
2022-09-16T19:12:13.281Z,8.55
2022-09-16T19:15:02.825Z,9.00
2022-09-16T19:17:37.414Z,8.70
2022-09-16T19:20:04.666Z,8.95
2022-09-16T19:22:31.383Z,5.70
2022-09-16T19:24:58.009Z,9.07
2022-09-16T19:27:24.648Z,13.18
2022-09-16T19:29:51.288Z,6.40
2022-09-16T19:32:17.985Z,9.93
2022-09-16T19:34:44.622Z,9.25
2022-09-16T19:37:11.299Z,8.60
2022-09-16T19:39:38.047Z,8.02
2022-09-16T19:42:04.846Z,10.40
2022-09-16T19:44:31.552Z,11.25
2022-09-16T19:46:58.292Z,8.52
2022-09-16T19:49:24.907Z,9.57
2022-09-16T19:51:52.331Z,13.05
2022-09-16T19:54:36.425Z,13.53
2022-09-16T19:57:12.364Z,9.05
2022-09-16T19:59:38.985Z,9.35
2022-09-16T20:02:08.465Z,8.27
2022-09-16T20:05:04.792Z,10.55
2022-09-16T20:10:15.185Z,11.27
2022-09-16T20:15:46.310Z,8.40
2022-09-16T20:18:12.972Z,10.10
2022-09-16T20:20:43.713Z,10.47
2022-09-16T20:23:13.051Z,9.45
2022-09-16T20:25:39.708Z,8.90
2022-09-16T20:28:07.784Z,13.35
2022-09-16T20:30:46.287Z,10.60
2022-09-16T20:33:12.944Z,10.67
2022-09-16T20:35:39.595Z,11.95
2022-09-16T20:38:07.601Z,12.55
2022-09-16T20:40:35.455Z,11.50
2022-09-16T20:43:12.371Z,9.00
2022-09-16T20:48:45.692Z,11.85
2022-09-16T20:51:17.363Z,15.90
2022-09-16T20:53:57.966Z,7.82
2022-09-16T20:56:41.636Z,9.23
2022-09-16T20:59:22.147Z,9.87
2022-09-16T21:01:54.717Z,8.63
2022-09-16T21:04:21.598Z,9.98
2022-09-16T21:06:48.391Z,17.73
2022-09-16T21:09:21.678Z,10.23
2022-09-16T21:12:00.953Z,9.27
2022-09-16T21:17:32.015Z,13.68
2022-09-16T21:44:24.096Z,13.23
2022-09-16T21:46:59.347Z,19.65
2022-09-16T21:49:47.542Z,16.50
2022-09-16T21:55:35.873Z,14.63
2022-09-16T23:33:21.063Z,15.23
2022-09-16T23:36:39.120Z,17.95
2022-09-16T23:45:20.552Z,16.23
2022-09-16T23:47:48.290Z,14.68
2022-09-16T23:50:37.531Z,17.38
2022-09-16T23:53:19.582Z,21.00
2022-09-16T23:55:52.362Z,12.95
2022-09-16T23:58:19.145Z,13.07
